Time;durP1;ratioP1;P1;durP2;ratioP2;P2;SDS_P1;SDS_P2;PMS_P1;PMS_P2;Temp;Humidity;BMP_temperature;BMP_pressure;BME280_temperature;BME280_humidity;BME280_pressure;Samples;Min_cycle;Max_cycle;Signal;HPM_P1;HPM_P2
2023/11/22 00:00:20;;;;;;;8.20;5.57;;;;;;;3.03;100.00;103899.13;5019443;28;20444;-74
2023/11/22 00:02:47;;;;;;;6.20;4.27;;;;;;;2.31;100.00;103772.69;5024418;28;20180;-74
2023/11/22 00:05:12;;;;;;;7.10;4.73;;;;;;;2.35;100.00;103803.44;5038562;28;20517;-74
2023/11/22 00:07:38;;;;;;;6.87;4.43;;;;;;;2.45;100.00;103811.78;5025809;28;20459;-74
2023/11/22 00:10:04;;;;;;;7.27;4.70;;;;;;;2.96;100.00;103900.34;5020317;28;21591;-74
2023/11/22 00:12:36;;;;;;;7.57;4.80;;;;;;;2.94;100.00;103887.16;5020850;28;20192;-73
2023/11/22 00:15:04;;;;;;;9.60;5.73;;;;;;;2.68;100.00;103874.28;5022587;28;20495;-74
2023/11/22 00:17:29;;;;;;;6.93;4.60;;;;;;;2.64;100.00;103905.41;5037814;28;20419;-73
2023/11/22 00:19:54;;;;;;;8.30;5.30;;;;;;;1.73;100.00;103765.66;5022644;28;20959;-74
2023/11/22 00:22:20;;;;;;;7.97;5.57;;;;;;;1.91;100.00;103792.22;5022826;28;20690;-73
2023/11/22 00:24:50;;;;;;;7.37;4.90;;;;;;;2.41;100.00;103887.91;5021017;28;20208;-74
2023/11/22 00:27:15;;;;;;;9.57;6.40;;;;;;;2.61;100.00;103915.28;5023273;28;20326;-73
2023/11/22 00:29:41;;;;;;;7.83;5.03;;;;;;;2.16;100.00;103821.09;5023659;28;20588;-74
2023/11/22 00:32:07;;;;;;;13.70;6.40;;;;;;;2.09;100.00;103817.03;5024710;28;20191;-74
2023/11/22 00:34:33;;;;;;;12.60;7.30;;;;;;;2.83;100.00;103942.47;5024719;28;20200;-73
2023/11/22 00:36:58;;;;;;;9.47;6.57;;;;;;;2.51;100.00;103888.34;5040886;28;20951;-73
2023/11/22 00:39:24;;;;;;;12.43;7.20;;;;;;;1.95;100.00;103807.91;5022499;28;20188;-74
2023/11/22 00:41:50;;;;;;;9.70;6.73;;;;;;;2.04;100.00;103815.44;5027354;28;20669;-73
2023/11/22 00:44:15;;;;;;;8.80;5.93;;;;;;;2.29;100.00;103845.25;5024978;28;20459;-73
2023/11/22 00:46:42;;;;;;;11.07;6.27;;;;;;;2.43;100.00;103901.97;5025153;28;21213;-74
2023/11/22 00:49:08;;;;;;;6.90;5.00;;;;;;;2.23;100.00;103849.88;5023496;28;20322;-73
2023/11/22 00:51:34;;;;;;;8.43;5.97;;;;;;;2.51;100.00;103893.63;5024987;28;20446;-73
2023/11/22 00:54:00;;;;;;;8.03;5.57;;;;;;;2.74;100.00;103937.63;5024358;28;20463;-74
2023/11/22 00:56:26;;;;;;;11.50;4.97;;;;;;;2.45;100.00;103900.06;5021760;28;20442;-73
2023/11/22 00:58:53;;;;;;;9.73;5.90;;;;;;;2.06;100.00;103827.75;5022628;28;20195;-73
2023/11/22 01:01:19;;;;;;;8.73;5.67;;;;;;;2.59;100.00;103927.75;5020862;28;20570;-73
2023/11/22 01:03:45;;;;;;;14.93;6.10;;;;;;;2.14;100.00;103878.56;5022012;28;20450;-73
2023/11/22 01:06:10;;;;;;;10.50;6.23;;;;;;;1.78;100.00;103810.47;5021357;28;20478;-74
2023/11/22 01:08:36;;;;;;;9.33;5.87;;;;;;;2.53;100.00;103943.94;5023313;28;20235;-74
2023/11/22 01:11:05;;;;;;;9.67;5.43;;;;;;;2.59;100.00;103962.19;5031013;28;20698;-74
2023/11/22 01:13:32;;;;;;;10.90;6.00;;;;;;;2.61;100.00;103963.00;5031057;28;20481;-73
2023/11/22 01:15:58;;;;;;;7.57;5.17;;;;;;;2.31;100.00;103906.94;5040813;28;20542;-74
2023/11/22 01:18:24;;;;;;;9.03;5.00;;;;;;;2.10;100.00;103869.91;5023607;28;20443;-73
2023/11/22 01:20:50;;;;;;;11.77;5.27;;;;;;;2.62;100.00;103954.09;5023868;28;20465;-73
2023/11/22 01:23:16;;;;;;;8.30;4.80;;;;;;;2.76;100.00;103964.94;5021480;28;20209;-74
2023/11/22 01:25:41;;;;;;;7.33;4.60;;;;;;;1.90;100.00;103840.81;5022403;28;20453;-74
2023/11/22 01:28:06;;;;;;;9.10;5.00;;;;;;;2.60;100.00;103955.94;5021804;28;20185;-74
2023/11/22 01:30:32;;;;;;;7.47;4.07;;;;;;;2.24;100.00;103883.38;5039721;28;20657;-73
2023/11/22 01:32:58;;;;;;;7.13;4.83;;;;;;;2.22;100.00;103897.63;5022773;28;20199;-73
2023/11/22 01:35:24;;;;;;;6.63;4.53;;;;;;;2.25;100.00;103910.72;5022131;28;20880;-73
2023/11/22 01:37:49;;;;;;;7.10;4.40;;;;;;;2.33;100.00;103929.78;5022129;28;20419;-73
2023/11/22 01:40:15;;;;;;;9.30;5.30;;;;;;;2.54;100.00;103921.78;5021022;28;20263;-73
2023/11/22 01:42:40;;;;;;;7.60;4.80;;;;;;;0.50;100.00;103574.59;5039713;28;20180;-73
2023/11/22 01:45:07;;;;;;;10.80;5.60;;;;;;;2.20;100.00;103880.97;5023056;28;20239;-73
2023/11/22 01:47:34;;;;;;;6.53;4.40;;;;;;;2.03;100.00;103892.31;5028486;28;20205;-73
2023/11/22 01:49:59;;;;;;;7.23;4.60;;;;;;;2.44;100.00;103927.50;5026980;28;20474;-74
2023/11/22 01:52:25;;;;;;;7.53;5.03;;;;;;;2.16;100.00;103866.97;5025191;28;20574;-74
2023/11/22 01:54:51;;;;;;;9.00;5.20;;;;;;;2.42;100.00;103942.59;5027138;28;20215;-74
2023/11/22 01:57:17;;;;;;;6.90;4.80;;;;;;;2.62;100.00;103936.41;5026105;28;20439;-73
2023/11/22 01:59:45;;;;;;;6.57;4.70;;;;;;;2.34;100.00;103909.44;5025158;28;20177;-73
2023/11/22 02:02:10;;;;;;;8.37;5.20;;;;;;;1.71;100.00;103832.84;5023949;28;20487;-73
2023/11/22 02:04:35;;;;;;;6.90;5.10;;;;;;;1.16;100.00;103767.31;5043137;28;20463;-73
2023/11/22 02:07:02;;;;;;;7.00;5.00;;;;;;;2.46;100.00;103925.66;5030481;28;20208;-73
2023/11/22 02:09:28;;;;;;;10.00;5.13;;;;;;;2.16;100.00;103882.88;5041961;28;20196;-73
2023/11/22 02:11:53;;;;;;;6.10;4.20;;;;;;;1.99;100.00;103845.69;5027798;28;20435;-73
2023/11/22 02:14:19;;;;;;;7.10;4.67;;;;;;;1.83;100.00;103842.03;5025182;28;20208;-73
2023/11/22 02:16:45;;;;;;;8.93;5.63;;;;;;;2.42;100.00;103942.59;5026594;28;20240;-73
2023/11/22 02:19:17;;;;;;;7.93;4.90;;;;;;;1.50;100.00;103838.13;5026638;28;20443;-73
2023/11/22 02:21:44;;;;;;;8.20;5.27;;;;;;;2.40;100.00;103954.19;5025972;28;20234;-73
2023/11/22 02:24:10;;;;;;;8.40;5.10;;;;;;;2.44;100.00;103956.66;5026005;28;20543;-74
2023/11/22 02:26:36;;;;;;;8.70;5.37;;;;;;;2.24;100.00;103914.31;5023628;28;20471;-73
2023/11/22 02:29:04;;;;;;;9.40;5.83;;;;;;;2.45;100.00;103958.38;5026817;28;20492;-73
2023/11/22 02:31:29;;;;;;;6.57;5.00;;;;;;;2.04;100.00;103917.84;5026608;28;20484;-73
2023/11/22 02:33:55;;;;;;;6.60;5.10;;;;;;;2.26;100.00;103953.03;5022330;28;20463;-73
2023/11/22 02:36:22;;;;;;;7.53;4.80;;;;;;;2.24;100.00;103949.59;5023647;28;20527;-73
2023/11/22 02:38:47;;;;;;;8.47;5.30;;;;;;;2.02;100.00;103924.97;5026006;28;20187;-73
2023/11/22 02:41:13;;;;;;;7.07;4.93;;;;;;;1.61;100.00;103850.03;5022697;28;20530;-73
2023/11/22 02:43:39;;;;;;;8.17;4.93;;;;;;;2.08;100.00;103942.38;5025444;28;20307;-73
2023/11/22 02:46:05;;;;;;;6.83;4.87;;;;;;;1.58;100.00;103906.59;5024676;28;21157;-73
2023/11/22 02:48:30;;;;;;;6.80;4.50;;;;;;;1.78;100.00;103916.31;5024943;28;20442;-73
2023/11/22 02:50:56;;;;;;;10.17;4.93;;;;;;;1.37;100.00;103836.94;5025476;28;20271;-73
2023/11/22 02:53:21;;;;;;;17.73;5.17;;;;;;;1.94;100.00;103951.81;5023586;28;20207;-73
2023/11/22 02:55:47;;;;;;;7.30;4.40;;;;;;;1.67;100.00;103894.75;5025651;28;20177;-73
2023/11/22 02:58:12;;;;;;;7.13;4.83;;;;;;;1.77;100.00;103917.25;5024441;28;20172;-73
2023/11/22 03:00:41;;;;;;;7.80;5.00;;;;;;;2.17;100.00;103953.47;5023869;28;20196;-73
2023/11/22 03:03:09;;;;;;;6.63;4.67;;;;;;;1.23;100.00;103852.53;5026277;28;20300;-73
2023/11/22 03:05:36;;;;;;;11.20;4.50;;;;;;;1.29;100.00;103833.75;5024863;28;20514;-73
2023/11/22 03:08:03;;;;;;;6.43;4.27;;;;;;;1.65;100.00;103923.06;5024405;28;20489;-73
2023/11/22 03:10:29;;;;;;;7.00;4.53;;;;;;;1.84;100.00;103950.47;5023912;28;20452;-73
2023/11/22 03:12:55;;;;;;;7.63;5.33;;;;;;;1.86;100.00;103968.94;5044197;28;20435;-73
2023/11/22 03:15:20;;;;;;;7.60;4.43;;;;;;;1.76;100.00;103979.03;5020661;28;20850;-73
2023/11/22 03:17:48;;;;;;;7.10;4.50;;;;;;;1.82;100.00;103986.72;5044253;28;20181;-73
2023/11/22 03:20:15;;;;;;;6.80;4.80;;;;;;;0.53;100.00;103780.47;5025248;28;20185;-73
2023/11/22 03:22:43;;;;;;;7.90;4.80;;;;;;;1.83;100.00;104014.06;5027797;28;20484;-73
2023/11/22 03:25:10;;;;;;;6.70;4.50;;;;;;;1.56;100.00;103990.44;5025588;28;20428;-73
2023/11/22 03:27:36;;;;;;;8.43;5.17;;;;;;;1.17;100.00;103921.53;5024208;28;20468;-73
2023/11/22 03:30:03;;;;;;;7.43;4.60;;;;;;;1.26;100.00;103935.22;5026154;28;20917;-73
2023/11/22 03:32:29;;;;;;;8.17;4.70;;;;;;;1.85;100.00;104041.31;5040248;28;20449;-73
2023/11/22 03:34:54;;;;;;;8.77;5.20;;;;;;;1.76;100.00;104022.25;5027211;28;20490;-74
2023/11/22 03:37:20;;;;;;;7.47;4.80;;;;;;;1.71;100.00;104018.09;5044310;28;20481;-74
2023/11/22 03:39:48;;;;;;;7.83;5.10;;;;;;;1.22;100.00;103901.06;5028695;28;20243;-73
2023/11/22 03:42:16;;;;;;;8.20;5.63;;;;;;;1.15;100.00;103907.50;5029546;28;20199;-73
2023/11/22 03:44:41;;;;;;;7.70;5.57;;;;;;;0.46;100.00;103778.97;5025923;28;20486;-73
2023/11/22 03:47:07;;;;;;;7.30;5.10;;;;;;;1.71;100.00;103965.16;5025362;28;20862;-73
2023/11/22 03:49:32;;;;;;;8.50;4.60;;;;;;;1.82;100.00;103981.44;5028456;28;20184;-73
2023/11/22 03:51:58;;;;;;;8.17;5.20;;;;;;;1.75;100.00;103951.72;5026756;28;20176;-73
2023/11/22 03:54:23;;;;;;;9.13;5.60;;;;;;;1.93;100.00;103960.66;5026199;28;20577;-73
2023/11/22 03:56:49;;;;;;;6.57;4.70;;;;;;;2.06;100.00;103984.84;5023190;28;20657;-73
2023/11/22 03:59:14;;;;;;;9.37;4.97;;;;;;;2.00;100.00;103982.47;5021956;28;20218;-73
2023/11/22 04:01:40;;;;;;;8.17;5.67;;;;;;;1.74;100.00;103950.00;5039582;28;20271;-73
2023/11/22 04:04:05;;;;;;;7.70;4.90;;;;;;;1.81;100.00;103972.63;5022948;28;20213;-74
2023/11/22 04:06:33;;;;;;;8.00;5.80;;;;;;;1.32;100.00;103883.88;5024467;28;20207;-73
2023/11/22 04:08:58;;;;;;;6.60;4.87;;;;;;;1.45;100.00;103914.19;5026257;28;20214;-74
2023/11/22 04:11:24;;;;;;;8.17;5.53;;;;;;;1.38;100.00;103904.78;5026120;28;21178;-73
2023/11/22 04:13:49;;;;;;;7.90;5.50;;;;;;;1.64;100.00;103955.75;5024511;28;20731;-73
2023/11/22 04:16:15;;;;;;;9.00;5.60;;;;;;;1.52;100.00;103928.88;5025682;28;20639;-73
2023/11/22 04:18:41;;;;;;;7.43;5.10;;;;;;;1.90;100.00;103995.19;5021412;28;20187;-73
2023/11/22 04:21:09;;;;;;;7.77;5.10;;;;;;;1.55;100.00;103959.63;5022251;28;20184;-73
2023/11/22 04:23:36;;;;;;;7.00;5.20;;;;;;;1.93;100.00;104000.38;5024527;28;20459;-73
2023/11/22 04:26:02;;;;;;;11.07;5.73;;;;;;;1.82;100.00;104021.13;5024803;28;20521;-73
2023/11/22 04:28:29;;;;;;;7.20;5.70;;;;;;;1.04;100.00;103924.66;5025889;28;20435;-73
2023/11/22 04:30:55;;;;;;;6.43;5.17;;;;;;;1.11;100.00;103922.63;5023374;28;20554;-73
2023/11/22 04:33:20;;;;;;;8.17;5.47;;;;;;;1.05;100.00;103913.16;5023636;28;20566;-73
2023/11/22 04:35:47;;;;;;;8.93;5.43;;;;;;;1.74;100.00;104020.63;5024565;28;20276;-73
2023/11/22 04:38:13;;;;;;;7.90;4.87;;;;;;;1.51;100.00;104001.22;5040720;28;20188;-73
2023/11/22 04:40:38;;;;;;;8.43;5.47;;;;;;;1.11;100.00;103920.00;5023958;28;20433;-73
2023/11/22 04:43:04;;;;;;;8.07;5.73;;;;;;;1.73;100.00;104006.50;5022510;28;20206;-73
2023/11/22 04:45:29;;;;;;;7.37;4.87;;;;;;;1.37;100.00;103970.97;5023553;28;20177;-73
2023/11/22 04:47:57;;;;;;;8.97;5.53;;;;;;;1.44;100.00;103961.84;5023398;28;20212;-73
2023/11/22 04:50:24;;;;;;;10.30;5.87;;;;;;;1.68;100.00;104021.72;5022730;28;20195;-73
2023/11/22 04:52:50;;;;;;;8.47;5.20;;;;;;;1.56;100.00;104009.84;5025384;28;20439;-73
2023/11/22 04:55:15;;;;;;;8.40;5.10;;;;;;;1.80;100.00;104038.88;5022638;28;20438;-73
2023/11/22 04:57:41;;;;;;;7.90;4.80;;;;;;;1.80;100.00;104042.38;5026035;28;20438;-73
2023/11/22 05:00:07;;;;;;;8.30;5.33;;;;;;;1.45;100.00;103975.03;5023953;28;20180;-73
2023/11/22 05:02:32;;;;;;;7.80;5.30;;;;;;;1.45;100.00;104004.13;5023322;28;20197;-73
2023/11/22 05:04:58;;;;;;;8.07;4.80;;;;;;;1.55;100.00;104021.34;5023683;28;20484;-73
2023/11/22 05:07:23;;;;;;;13.33;5.90;;;;;;;1.11;100.00;103904.97;5021676;28;20213;-73
2023/11/22 05:09:49;;;;;;;11.33;6.70;;;;;;;1.87;100.00;104021.81;5023588;28;20191;-73
2023/11/22 05:12:14;;;;;;;8.33;5.83;;;;;;;0.94;100.00;103894.22;5023814;28;20192;-73
2023/11/22 05:14:40;;;;;;;9.30;6.30;;;;;;;0.95;100.00;103852.78;5022546;28;20216;-73
2023/11/22 05:17:06;;;;;;;9.97;5.57;;;;;;;1.68;100.00;104004.94;5027216;28;20184;-73
2023/11/22 05:19:31;;;;;;;9.70;5.97;;;;;;;1.35;100.00;103945.44;5026999;28;20784;-73
2023/11/22 05:21:57;;;;;;;8.80;6.40;;;;;;;1.06;100.00;103906.94;5027857;28;20181;-73
2023/11/22 05:24:23;;;;;;;10.47;6.53;;;;;;;1.35;100.00;103926.06;5030307;28;20605;-73
2023/11/22 05:26:49;;;;;;;10.23;5.80;;;;;;;1.61;100.00;104016.72;5031088;28;20474;-73
2023/11/22 05:29:14;;;;;;;9.80;6.30;;;;;;;1.50;100.00;104018.00;5026261;28;20260;-73
2023/11/22 05:31:40;;;;;;;9.37;6.30;;;;;;;1.53;100.00;103999.41;5029323;28;20177;-73
2023/11/22 05:34:06;;;;;;;9.80;6.20;;;;;;;1.65;100.00;104043.03;5026301;28;20323;-72
2023/11/22 05:36:31;;;;;;;9.30;6.60;;;;;;;1.72;100.00;104039.19;5028450;28;20526;-73
2023/11/22 05:38:59;;;;;;;12.07;7.27;;;;;;;1.24;100.00;103989.09;5027864;28;20681;-73
2023/11/22 05:41:26;;;;;;;10.60;6.57;;;;;;;1.48;100.00;104024.31;5029145;28;20180;-73
2023/11/22 05:43:52;;;;;;;9.30;6.53;;;;;;;1.65;100.00;104021.84;5028334;28;20462;-73
2023/11/22 05:46:21;;;;;;;8.13;5.77;;;;;;;1.56;100.00;104009.84;5027780;28;20475;-73
2023/11/22 05:48:49;;;;;;;9.20;6.67;;;;;;;1.42;100.00;104028.06;5029318;28;20431;-73
2023/11/22 05:51:15;;;;;;;8.90;6.10;;;;;;;1.26;100.00;104025.13;5027375;28;20442;-73
2023/11/22 05:53:41;;;;;;;11.10;7.60;;;;;;;1.02;100.00;103962.66;5025430;28;20458;-73
2023/11/22 05:56:08;;;;;;;11.97;7.73;;;;;;;1.12;100.00;103975.44;5027053;28;20569;-73
2023/11/22 05:58:34;;;;;;;10.40;7.70;;;;;;;1.10;100.00;103940.28;5028202;28;20192;-73
2023/11/22 06:01:00;;;;;;;10.87;6.60;;;;;;;1.76;100.00;104069.03;5036934;28;20444;-73
2023/11/22 06:03:25;;;;;;;13.50;7.43;;;;;;;1.33;100.00;104005.47;5035213;28;20210;-73
2023/11/22 06:05:51;;;;;;;10.47;7.73;;;;;;;1.22;100.00;103985.66;5025800;28;20196;-73
2023/11/22 06:08:16;;;;;;;12.10;7.73;;;;;;;1.55;100.00;104039.00;5028993;28;20266;-73
2023/11/22 06:10:42;;;;;;;11.80;8.03;;;;;;;1.70;100.00;104048.09;5026024;28;20189;-73
2023/11/22 06:13:08;;;;;;;12.90;7.77;;;;;;;1.35;100.00;104021.28;5025592;28;20215;-73
2023/11/22 06:15:34;;;;;;;11.33;8.50;;;;;;;1.39;100.00;104032.59;5025178;28;20184;-73
2023/11/22 06:17:59;;;;;;;10.30;8.33;;;;;;;1.31;100.00;103993.25;5029667;28;20435;-73
2023/11/22 06:20:26;;;;;;;10.50;8.53;;;;;;;1.75;100.00;104032.91;5025267;28;20185;-73
2023/11/22 06:22:52;;;;;;;12.13;8.07;;;;;;;2.00;100.00;104113.03;5026134;28;20193;-73
2023/11/22 06:25:18;;;;;;;12.30;9.10;;;;;;;1.26;100.00;103997.84;5026989;28;20424;-73
2023/11/22 06:27:43;;;;;;;12.90;9.10;;;;;;;1.60;100.00;104091.75;5025382;28;20216;-73
2023/11/22 06:30:12;;;;;;;15.33;8.80;;;;;;;1.97;100.00;104123.75;5026653;28;20183;-73
2023/11/22 06:32:37;;;;;;;12.73;9.83;;;;;;;2.06;100.00;104122.53;5024820;28;20188;-73
2023/11/22 06:35:03;;;;;;;13.40;9.03;;;;;;;1.69;100.00;104075.50;5024625;28;20469;-73
2023/11/22 06:37:28;;;;;;;12.27;9.53;;;;;;;1.99;100.00;104092.78;5025834;28;20180;-73
2023/11/22 06:39:54;;;;;;;13.50;9.00;;;;;;;2.14;100.00;104140.72;5025402;28;20192;-73
2023/11/22 06:42:22;;;;;;;11.27;9.13;;;;;;;2.18;100.00;104139.69;5025953;28;20196;-73
2023/11/22 06:44:52;;;;;;;13.50;9.43;;;;;;;2.02;100.00;104124.41;5028125;28;20212;-73
2023/11/22 06:47:18;;;;;;;13.27;9.53;;;;;;;1.26;100.00;104011.06;5021928;28;20463;-73
2023/11/22 06:49:53;;;;;;;14.50;9.80;;;;;;;1.85;100.00;104099.56;5026102;28;20509;-73
2023/11/22 06:52:18;;;;;;;12.57;8.67;;;;;;;2.19;100.00;104146.72;5002329;28;20439;-73
2023/11/22 06:54:44;;;;;;;14.87;9.47;;;;;;;2.19;100.00;104142.28;5024978;28;20458;-73
2023/11/22 06:57:09;;;;;;;15.10;9.37;;;;;;;1.61;100.00;104043.19;5025970;28;20565;-73
2023/11/22 06:59:35;;;;;;;12.77;8.40;;;;;;;1.76;100.00;104080.47;5036506;28;20195;-73
2023/11/22 07:02:00;;;;;;;12.63;9.10;;;;;;;1.42;100.00;104024.53;5025491;28;20263;-73
2023/11/22 07:04:26;;;;;;;14.70;9.70;;;;;;;1.45;100.00;104027.09;5026991;28;20208;-73
2023/11/22 07:06:51;;;;;;;17.40;10.27;;;;;;;2.12;100.00;104134.66;5027307;28;20263;-73
2023/11/22 07:09:17;;;;;;;14.83;10.33;;;;;;;1.41;100.00;104015.75;5026693;28;20196;-73
2023/11/22 07:11:44;;;;;;;12.70;9.57;;;;;;;1.30;100.00;103957.13;5043265;28;20545;-73
2023/11/22 07:14:09;;;;;;;15.33;10.70;;;;;;;1.46;100.00;104003.19;5024311;28;20204;-73
2023/11/22 07:16:35;;;;;;;14.87;10.63;;;;;;;1.71;100.00;104039.25;5024649;28;20966;-73
2023/11/22 07:19:06;;;;;;;16.90;10.80;;;;;;;2.23;100.00;104085.63;5023764;28;20684;-73
2023/11/22 07:21:32;;;;;;;15.70;10.87;;;;;;;2.02;100.00;104075.91;5023008;28;20185;-73
2023/11/22 07:24:02;;;;;;;17.20;10.47;;;;;;;1.81;100.00;104036.16;5024278;28;20505;-73
2023/11/22 07:26:27;;;;;;;17.10;11.40;;;;;;;2.12;100.00;104081.69;5026361;28;20458;-73
2023/11/22 07:28:53;;;;;;;16.20;10.93;;;;;;;1.49;100.00;103981.91;5026599;28;20490;-73
2023/11/22 07:31:19;;;;;;;17.67;11.80;;;;;;;2.41;100.00;104091.06;5024177;28;20245;-73
2023/11/22 07:33:46;;;;;;;15.40;11.27;;;;;;;1.33;100.00;103976.38;5021413;28;20463;-73
2023/11/22 07:36:14;;;;;;;17.83;10.93;;;;;;;1.68;100.00;104028.78;5027348;28;20198;-73
2023/11/22 07:38:41;;;;;;;14.83;10.00;;;;;;;0.89;100.00;103946.41;5039912;28;20530;-73
2023/11/22 07:41:07;;;;;;;15.30;11.00;;;;;;;1.65;100.00;104047.41;5025711;28;20462;-73
2023/11/22 07:43:32;;;;;;;14.70;10.73;;;;;;;1.80;100.00;104057.41;5024115;28;20451;-73
2023/11/22 07:45:59;;;;;;;15.30;10.50;;;;;;;1.39;100.00;104041.41;5026719;28;20818;-73
2023/11/22 07:48:25;;;;;;;18.23;10.83;;;;;;;1.80;100.00;104037.09;5024337;28;20185;-73
2023/11/22 07:50:51;;;;;;;14.70;10.70;;;;;;;1.55;100.00;104052.22;5025368;28;20438;-73
2023/11/22 07:53:17;;;;;;;18.10;11.13;;;;;;;1.99;100.00;104090.13;5026464;28;20274;-73
2023/11/22 07:55:43;;;;;;;14.40;11.33;;;;;;;1.74;100.00;104063.81;5025457;28;20435;-73
2023/11/22 07:58:08;;;;;;;14.80;10.97;;;;;;;2.28;100.00;104164.88;5025905;28;20196;-73
2023/11/22 08:00:36;;;;;;;15.67;11.30;;;;;;;2.44;100.00;104202.22;5023766;28;20450;-73
2023/11/22 08:03:02;;;;;;;16.10;11.43;;;;;;;2.59;100.00;104182.16;5026412;28;20441;-72
2023/11/22 08:05:34;;;;;;;17.73;11.30;;;;;;;2.15;100.00;104089.50;5026532;28;20944;-73
2023/11/22 08:08:01;;;;;;;16.20;10.40;;;;;;;2.29;100.00;104096.88;5025533;28;20467;-73
2023/11/22 08:10:27;;;;;;;18.10;10.03;;;;;;;2.69;100.00;104146.38;5026321;28;20470;-73
2023/11/22 08:12:53;;;;;;;16.20;10.63;;;;;;;2.70;100.00;104161.34;5027139;28;20423;-73
2023/11/22 08:15:20;;;;;;;15.55;10.50;;;;;;;3.03;100.00;104166.97;5026832;28;20505;-73
2023/11/22 08:17:46;;;;;;;16.97;11.20;;;;;;;2.88;100.00;104168.50;5022107;28;21075;-73
2023/11/22 08:20:16;;;;;;;15.50;11.27;;;;;;;2.55;100.00;104107.22;5022263;28;20459;-73
2023/11/22 08:22:42;;;;;;;14.07;10.30;;;;;;;2.29;100.00;104079.19;5025888;28;20445;-73
2023/11/22 08:25:09;;;;;;;20.30;10.90;;;;;;;2.54;100.00;104109.94;5032500;28;20459;-73
2023/11/22 08:27:34;;;;;;;16.17;10.60;;;;;;;2.96;100.00;104181.44;5028837;28;20219;-73
2023/11/22 08:30:04;;;;;;;13.50;10.40;;;;;;;2.87;100.00;104166.78;5026893;28;20443;-73
2023/11/22 08:32:33;;;;;;;19.40;10.93;;;;;;;2.84;100.00;104172.22;5026455;28;20216;-72
2023/11/22 08:34:58;;;;;;;16.00;10.87;;;;;;;2.29;100.00;104095.09;5024176;28;20463;-73
2023/11/22 08:37:24;;;;;;;14.03;10.37;;;;;;;2.04;100.00;104037.00;5023585;28;20439;-72
2023/11/22 08:39:50;;;;;;;17.90;10.73;;;;;;;2.67;100.00;104145.59;5022111;28;20201;-72
2023/11/22 08:42:15;;;;;;;17.17;11.00;;;;;;;1.83;100.00;104030.81;5022419;28;20493;-73
2023/11/22 08:44:41;;;;;;;15.20;10.70;;;;;;;2.82;100.00;104123.72;5025068;28;20200;-72
2023/11/22 08:47:07;;;;;;;15.40;10.90;;;;;;;2.65;100.00;104105.03;5022931;28;20212;-73
2023/11/22 08:49:33;;;;;;;16.47;10.70;;;;;;;2.85;100.00;104181.03;5026413;28;20466;-73
2023/11/22 08:51:59;;;;;;;16.60;10.97;;;;;;;2.25;100.00;104057.25;5027508;28;20691;-72
2023/11/22 08:54:28;;;;;;;17.67;10.37;;;;;;;3.05;100.00;104185.47;5026924;28;20454;-72
2023/11/22 08:56:56;;;;;;;14.80;10.43;;;;;;;2.76;100.00;104162.88;5024816;28;20234;-72
2023/11/22 08:59:22;;;;;;;14.27;10.33;;;;;;;2.81;100.00;104172.38;5021693;28;20451;-73
2023/11/22 09:01:47;;;;;;;12.87;9.27;;;;;;;2.76;100.00;104166.41;5023063;28;20454;-72
2023/11/22 09:04:13;;;;;;;20.00;9.33;;;;;;;2.89;100.00;104199.41;5024943;28;20204;-73
2023/11/22 09:06:39;;;;;;;14.33;9.43;;;;;;;2.85;100.00;104194.31;5025248;28;20205;-73
2023/11/22 09:09:05;;;;;;;14.07;9.97;;;;;;;2.33;100.00;104071.97;5028560;28;20443;-73
2023/11/22 09:11:31;;;;;;;15.30;10.27;;;;;;;2.91;100.00;104186.94;5025125;28;20334;-73
2023/11/22 09:13:57;;;;;;;18.50;9.50;;;;;;;3.16;100.00;104189.38;5022030;28;20460;-73
2023/11/22 09:16:24;;;;;;;14.40;10.53;;;;;;;2.68;100.00;104144.66;5029045;28;20438;-73
2023/11/22 09:18:50;;;;;;;15.30;10.37;;;;;;;2.85;100.00;104183.69;5023632;28;20563;-73
2023/11/22 09:21:16;;;;;;;12.70;9.10;;;;;;;2.67;100.00;104153.53;5024021;28;20557;-73
2023/11/22 09:23:42;;;;;;;15.47;10.20;;;;;;;2.64;100.00;104127.16;5022229;28;20468;-73
2023/11/22 09:26:08;;;;;;;12.90;9.90;;;;;;;3.16;100.00;104173.47;5025338;28;20454;-73
2023/11/22 09:28:33;;;;;;;14.00;9.80;;;;;;;2.67;100.00;104090.78;5039180;28;20809;-73
2023/11/22 09:31:05;;;;;;;12.00;9.20;;;;;;;2.43;100.00;104074.16;5022806;28;20226;-73
2023/11/22 09:33:31;;;;;;;12.30;9.30;;;;;;;3.21;100.00;104177.69;5025048;28;20710;-73
2023/11/22 09:35:58;;;;;;;12.70;9.27;;;;;;;3.13;100.00;104176.25;5026114;28;20439;-74
2023/11/22 09:38:24;;;;;;;14.97;10.63;;;;;;;2.97;100.00;104174.34;5027043;28;20454;-73
2023/11/22 09:40:49;;;;;;;12.80;9.17;;;;;;;2.43;100.00;104098.03;5024476;28;20438;-73
2023/11/22 09:43:20;;;;;;;10.67;8.23;;;;;;;3.01;100.00;104165.31;5025637;28;20458;-73
2023/11/22 09:45:46;;;;;;;15.33;10.10;;;;;;;2.57;100.00;104040.88;5040704;28;20593;-73
2023/11/22 09:48:20;;;;;;;11.63;9.30;;;;;;;2.56;100.00;104050.63;5021057;28;20890;-74
2023/11/22 09:51:05;;;;;;;12.87;9.40;;;;;;;3.10;100.00;104160.47;5025276;28;20442;-73
2023/11/22 09:53:40;;;;;;;15.73;8.40;;;;;;;3.12;100.00;104163.03;5028348;28;20538;-73
2023/11/22 09:56:09;;;;;;;13.47;9.40;;;;;;;2.98;100.00;104136.28;5026756;28;20434;-73
2023/11/22 09:58:36;;;;;;;11.43;7.83;;;;;;;2.74;100.00;104096.66;5027020;28;20955;-73
2023/11/22 10:01:03;;;;;;;11.70;8.47;;;;;;;2.25;100.00;103988.38;5027613;28;20459;-73
2023/11/22 10:03:29;;;;;;;12.17;8.30;;;;;;;3.12;100.00;104158.59;5028525;28;20457;-73
2023/11/22 10:06:04;;;;;;;10.17;7.17;;;;;;;3.23;100.00;104166.09;5026621;28;20435;-73
2023/11/22 10:08:32;;;;;;;11.53;7.93;;;;;;;3.34;100.00;104139.06;5029187;28;20242;-73
2023/11/22 10:10:59;;;;;;;10.60;7.17;;;;;;;2.78;100.00;104058.50;5026729;28;20443;-74
2023/11/22 10:13:25;;;;;;;9.90;7.10;;;;;;;3.03;100.00;104078.59;5026855;28;20516;-73
2023/11/22 10:15:52;;;;;;;10.23;7.03;;;;;;;3.54;100.00;104123.06;5032130;28;20533;-73
2023/11/22 10:18:19;;;;;;;10.33;7.43;;;;;;;2.80;100.00;104051.31;5028732;28;20419;-73
2023/11/22 10:20:47;;;;;;;10.20;7.27;;;;;;;2.92;100.00;104093.22;5029199;28;20443;-73
2023/11/22 10:23:14;;;;;;;9.03;7.13;;;;;;;3.22;100.00;104106.00;5030259;28;20452;-73
2023/11/22 10:25:49;;;;;;;11.30;7.50;;;;;;;2.95;100.00;104007.34;5026484;28;20520;-73
2023/11/22 10:28:21;;;;;;;10.80;5.93;;;;;;;3.25;100.00;104071.38;5028081;28;20557;-73
2023/11/22 10:30:49;;;;;;;8.93;5.90;;;;;;;3.33;100.00;104095.75;5027231;28;20490;-73
2023/11/22 10:33:15;;;;;;;10.50;6.60;;;;;;;2.74;100.00;103966.78;5029815;28;20485;-73
2023/11/22 10:35:44;;;;;;;9.20;6.00;;;;;;;2.85;100.00;103958.34;5030690;28;20963;-74
2023/11/22 10:38:09;;;;;;;11.87;7.37;;;;;;;2.96;100.00;103969.31;5030246;28;20226;-73
2023/11/22 10:40:36;;;;;;;10.77;6.43;;;;;;;2.44;100.00;103882.47;5027254;28;20843;-73
2023/11/22 10:43:02;;;;;;;10.40;6.63;;;;;;;3.36;100.00;103967.41;5029493;28;20188;-73
2023/11/22 10:45:31;;;;;;;11.33;6.80;;;;;;;2.76;100.00;103901.31;5027900;28;20504;-73
2023/11/22 10:47:58;;;;;;;10.90;7.33;;;;;;;2.77;100.00;103873.84;5039521;28;20556;-74
2023/11/22 10:50:23;;;;;;;10.87;6.27;;;;;;;3.37;100.00;103950.53;5028234;28;21303;-73
2023/11/22 10:52:55;;;;;;;10.90;6.43;;;;;;;3.21;100.00;103877.91;5039354;28;20471;-73
2023/11/22 10:55:26;;;;;;;10.40;6.60;;;;;;;2.46;100.00;103773.78;5024234;28;20320;-73
2023/11/22 10:57:56;;;;;;;11.57;6.10;;;;;;;3.05;100.00;103868.09;5027551;28;20433;-73
2023/11/22 11:00:23;;;;;;;10.70;6.80;;;;;;;2.89;100.00;103841.47;5025602;28;20459;-73
2023/11/22 11:02:59;;;;;;;9.40;6.50;;;;;;;3.59;100.00;103899.91;5028302;28;20438;-73
2023/11/22 11:05:29;;;;;;;8.40;6.00;;;;;;;3.22;100.00;103816.00;5020841;28;20528;-74
2023/11/22 11:08:10;;;;;;;11.10;6.23;;;;;;;3.47;100.00;103794.34;5024942;28;20503;-74
2023/11/22 11:10:41;;;;;;;8.27;5.37;;;;;;;3.11;100.00;103742.28;5024511;28;20441;-74
2023/11/22 11:13:09;;;;;;;9.07;5.63;;;;;;;3.62;100.00;103814.81;5028876;28;20820;-74
2023/11/22 11:15:35;;;;;;;10.73;5.53;;;;;;;3.10;100.00;103706.94;5028809;28;20427;-74